sensor_id;sensor_type;location;lat;lon;timestamp;pressure;altitude;pressure_sealevel;temperature;humidity
37852;BME280;23691;52.486;4.650;2022-09-09T00:04:04;100691.50;;;18.41;70.49
37852;BME280;23691;52.486;4.650;2022-09-09T00:06:42;100690.50;;;18.35;70.68
37852;BME280;23691;52.486;4.650;2022-09-09T00:09:21;100675.50;;;18.39;70.79
37852;BME280;23691;52.486;4.650;2022-09-09T00:12:05;100683.22;;;18.36;71.09
37852;BME280;23691;52.486;4.650;2022-09-09T00:14:54;100671.09;;;18.38;70.75
37852;BME280;23691;52.486;4.650;2022-09-09T00:17:43;100679.22;;;18.38;70.65
37852;BME280;23691;52.486;4.650;2022-09-09T00:20:23;100685.81;;;18.24;71.27
37852;BME280;23691;52.486;4.650;2022-09-09T00:25:57;100686.22;;;18.21;71.34
37852;BME280;23691;52.486;4.650;2022-09-09T00:28:25;100682.69;;;18.20;71.42
37852;BME280;23691;52.486;4.650;2022-09-09T00:30:52;100690.22;;;18.18;71.89
37852;BME280;23691;52.486;4.650;2022-09-09T00:33:20;100697.50;;;18.18;71.63
37852;BME280;23691;52.486;4.650;2022-09-09T00:35:50;100695.03;;;18.16;71.72
37852;BME280;23691;52.486;4.650;2022-09-09T00:38:20;100690.28;;;18.12;71.91
37852;BME280;23691;52.486;4.650;2022-09-09T00:40:56;100700.25;;;18.11;71.97
37852;BME280;23691;52.486;4.650;2022-09-09T00:48:20;100687.59;;;18.05;72.25
37852;BME280;23691;52.486;4.650;2022-09-09T00:50:59;100690.09;;;18.07;72.23
37852;BME280;23691;52.486;4.650;2022-09-09T00:54:25;100689.47;;;18.05;72.20
37852;BME280;23691;52.486;4.650;2022-09-09T00:57:01;100688.88;;;18.02;72.21
37852;BME280;23691;52.486;4.650;2022-09-09T00:59:35;100677.84;;;17.97;72.40
37852;BME280;23691;52.486;4.650;2022-09-09T01:02:16;100687.44;;;17.93;72.46
37852;BME280;23691;52.486;4.650;2022-09-09T01:04:43;100684.31;;;17.96;72.31
37852;BME280;23691;52.486;4.650;2022-09-09T01:07:18;100675.16;;;17.97;72.44
37852;BME280;23691;52.486;4.650;2022-09-09T01:09:59;100677.25;;;17.95;72.37
37852;BME280;23691;52.486;4.650;2022-09-09T01:14:58;100677.53;;;17.80;72.95
37852;BME280;23691;52.486;4.650;2022-09-09T01:17:32;100675.00;;;17.79;73.20
37852;BME280;23691;52.486;4.650;2022-09-09T01:27:59;100675.84;;;17.79;73.27
37852;BME280;23691;52.486;4.650;2022-09-09T01:30:26;100675.22;;;17.77;73.49
37852;BME280;23691;52.486;4.650;2022-09-09T01:32:57;100668.16;;;17.76;73.32
37852;BME280;23691;52.486;4.650;2022-09-09T01:37:57;100666.69;;;17.74;73.36
37852;BME280;23691;52.486;4.650;2022-09-09T01:40:22;100663.56;;;17.77;73.44
37852;BME280;23691;52.486;4.650;2022-09-09T01:42:48;100671.09;;;17.68;73.54
37852;BME280;23691;52.486;4.650;2022-09-09T01:45:14;100673.81;;;17.68;73.56
37852;BME280;23691;52.486;4.650;2022-09-09T01:47:40;100670.06;;;17.69;73.62
37852;BME280;23691;52.486;4.650;2022-09-09T01:50:07;100669.88;;;17.64;73.82
37852;BME280;23691;52.486;4.650;2022-09-09T01:52:33;100662.41;;;17.59;74.10
37852;BME280;23691;52.486;4.650;2022-09-09T01:55:01;100659.50;;;17.61;74.02
37852;BME280;23691;52.486;4.650;2022-09-09T01:57:33;100659.28;;;17.63;73.59
37852;BME280;23691;52.486;4.650;2022-09-09T02:02:37;100650.38;;;17.55;74.02
37852;BME280;23691;52.486;4.650;2022-09-09T02:05:17;100651.81;;;17.58;74.14
37852;BME280;23691;52.486;4.650;2022-09-09T02:07:49;100651.56;;;17.59;73.83
37852;BME280;23691;52.486;4.650;2022-09-09T02:10:24;100654.09;;;17.54;74.07
37852;BME280;23691;52.486;4.650;2022-09-09T02:13:04;100653.91;;;17.56;74.29
37852;BME280;23691;52.486;4.650;2022-09-09T02:18:00;100648.75;;;17.48;74.30
37852;BME280;23691;52.486;4.650;2022-09-09T02:20:31;100646.25;;;17.46;74.35
37852;BME280;23691;52.486;4.650;2022-09-09T02:22:58;100650.81;;;17.46;74.53
37852;BME280;23691;52.486;4.650;2022-09-09T02:25:28;100646.44;;;17.45;74.71
37852;BME280;23691;52.486;4.650;2022-09-09T02:27:55;100646.88;;;17.42;74.77
37852;BME280;23691;52.486;4.650;2022-09-09T02:30:23;100644.59;;;17.38;74.95
37852;BME280;23691;52.486;4.650;2022-09-09T02:32:50;100644.19;;;17.35;75.32
37852;BME280;23691;52.486;4.650;2022-09-09T02:35:21;100643.34;;;17.41;74.56
37852;BME280;23691;52.486;4.650;2022-09-09T02:37:51;100643.78;;;17.38;75.07
37852;BME280;23691;52.486;4.650;2022-09-09T02:40:18;100635.88;;;17.36;75.24
37852;BME280;23691;52.486;4.650;2022-09-09T02:42:46;100632.34;;;17.36;75.06
37852;BME280;23691;52.486;4.650;2022-09-09T02:45:23;100634.88;;;17.31;75.28
37852;BME280;23691;52.486;4.650;2022-09-09T02:48:06;100630.09;;;17.33;75.21
37852;BME280;23691;52.486;4.650;2022-09-09T02:50:41;100631.53;;;17.29;75.47
37852;BME280;23691;52.486;4.650;2022-09-09T02:53:20;100630.66;;;17.35;74.92
37852;BME280;23691;52.486;4.650;2022-09-09T02:58:20;100631.72;;;17.34;74.75
37852;BME280;23691;52.486;4.650;2022-09-09T03:00:48;100634.44;;;17.27;75.11
37852;BME280;23691;52.486;4.650;2022-09-09T03:03:14;100625.94;;;17.24;75.20
37852;BME280;23691;52.486;4.650;2022-09-09T03:05:41;100627.84;;;17.16;75.75
37852;BME280;23691;52.486;4.650;2022-09-09T03:08:07;100631.59;;;17.15;75.74
37852;BME280;23691;52.486;4.650;2022-09-09T03:10:32;100625.56;;;17.13;76.18
37852;BME280;23691;52.486;4.650;2022-09-09T03:12:58;100622.44;;;17.16;75.79
37852;BME280;23691;52.486;4.650;2022-09-09T03:15:24;100617.22;;;17.22;75.46
37852;BME280;23691;52.486;4.650;2022-09-09T03:17:49;100620.13;;;17.20;75.76
37852;BME280;23691;52.486;4.650;2022-09-09T03:20:15;100621.19;;;17.12;76.19
37852;BME280;23691;52.486;4.650;2022-09-09T03:22:41;100620.16;;;17.13;76.03
37852;BME280;23691;52.486;4.650;2022-09-09T03:25:06;100619.97;;;17.08;76.34
37852;BME280;23691;52.486;4.650;2022-09-09T03:27:32;100621.00;;;17.07;76.28
37852;BME280;23691;52.486;4.650;2022-09-09T03:29:57;100618.09;;;17.09;76.50
37852;BME280;23691;52.486;4.650;2022-09-09T03:32:23;100619.97;;;17.08;76.14
37852;BME280;23691;52.486;4.650;2022-09-09T03:34:51;100617.88;;;17.10;76.01
37852;BME280;23691;52.486;4.650;2022-09-09T03:37:17;100614.34;;;17.10;76.26
37852;BME280;23691;52.486;4.650;2022-09-09T03:39:43;100609.56;;;17.12;76.09
37852;BME280;23691;52.486;4.650;2022-09-09T03:42:09;100606.88;;;17.05;76.08
37852;BME280;23691;52.486;4.650;2022-09-09T03:44:34;100604.22;;;16.99;76.47
37852;BME280;23691;52.486;4.650;2022-09-09T03:47:00;100595.69;;;16.95;76.54
37852;BME280;23691;52.486;4.650;2022-09-09T03:49:26;100604.03;;;16.87;76.58
37852;BME280;23691;52.486;4.650;2022-09-09T03:51:54;100611.31;;;16.86;76.82
37852;BME280;23691;52.486;4.650;2022-09-09T03:54:20;100607.97;;;16.91;76.35
37852;BME280;23691;52.486;4.650;2022-09-09T03:56:45;100596.31;;;16.90;76.28
37852;BME280;23691;52.486;4.650;2022-09-09T03:59:10;100603.59;;;16.90;76.13
37852;BME280;23691;52.486;4.650;2022-09-09T04:01:36;100604.66;;;16.89;76.08
37852;BME280;23691;52.486;4.650;2022-09-09T04:04:02;100603.38;;;16.91;76.13
37852;BME280;23691;52.486;4.650;2022-09-09T04:06:27;100590.28;;;16.95;75.83
37852;BME280;23691;52.486;4.650;2022-09-09T04:08:53;100597.94;;;16.98;75.63
37852;BME280;23691;52.486;4.650;2022-09-09T04:11:18;100591.72;;;16.98;75.57
37852;BME280;23691;52.486;4.650;2022-09-09T04:13:44;100593.41;;;16.92;75.36
37852;BME280;23691;52.486;4.650;2022-09-09T04:16:10;100590.31;;;16.88;75.26
37852;BME280;23691;52.486;4.650;2022-09-09T04:18:36;100584.06;;;16.88;75.36
37852;BME280;23691;52.486;4.650;2022-09-09T04:21:02;100588.25;;;16.84;75.91
37852;BME280;23691;52.486;4.650;2022-09-09T04:23:29;100586.16;;;16.79;76.00
37852;BME280;23691;52.486;4.650;2022-09-09T04:25:56;100581.38;;;16.74;76.07
37852;BME280;23691;52.486;4.650;2022-09-09T04:28:24;100584.91;;;16.75;76.16
37852;BME280;23691;52.486;4.650;2022-09-09T04:30:50;100583.66;;;16.71;75.69
37852;BME280;23691;52.486;4.650;2022-09-09T04:33:16;100574.09;;;16.68;76.15
37852;BME280;23691;52.486;4.650;2022-09-09T04:35:49;100571.00;;;16.71;76.20
37852;BME280;23691;52.486;4.650;2022-09-09T04:38:16;100570.75;;;16.73;76.01
37852;BME280;23691;52.486;4.650;2022-09-09T04:40:51;100576.41;;;16.71;75.81
37852;BME280;23691;52.486;4.650;2022-09-09T04:43:17;100574.72;;;16.70;75.97
37852;BME280;23691;52.486;4.650;2022-09-09T04:45:47;100573.69;;;16.71;75.66
37852;BME280;23691;52.486;4.650;2022-09-09T04:48:13;100574.94;;;16.69;75.78
37852;BME280;23691;52.486;4.650;2022-09-09T04:50:39;100574.53;;;16.59;75.96
37852;BME280;23691;52.486;4.650;2022-09-09T04:53:06;100572.06;;;16.57;76.08
37852;BME280;23691;52.486;4.650;2022-09-09T04:55:32;100570.38;;;16.56;76.14
37852;BME280;23691;52.486;4.650;2022-09-09T04:58:07;100578.50;;;16.43;76.36
37852;BME280;23691;52.486;4.650;2022-09-09T05:00:33;100581.22;;;16.36;76.58
37852;BME280;23691;52.486;4.650;2022-09-09T05:03:05;100576.22;;;16.40;76.75
37852;BME280;23691;52.486;4.650;2022-09-09T05:05:32;100579.97;;;16.39;76.81
37852;BME280;23691;52.486;4.650;2022-09-09T05:08:07;100577.25;;;16.39;76.74
37852;BME280;23691;52.486;4.650;2022-09-09T05:10:34;100572.91;;;16.44;76.61
37852;BME280;23691;52.486;4.650;2022-09-09T05:13:01;100571.03;;;16.45;76.05
37852;BME280;23691;52.486;4.650;2022-09-09T05:15:27;100566.88;;;16.42;76.42
37852;BME280;23691;52.486;4.650;2022-09-09T05:17:52;100568.09;;;16.46;76.31
37852;BME280;23691;52.486;4.650;2022-09-09T05:20:18;100571.66;;;16.40;76.50
37852;BME280;23691;52.486;4.650;2022-09-09T05:22:44;100566.69;;;16.37;76.46
37852;BME280;23691;52.486;4.650;2022-09-09T05:25:09;100562.13;;;16.38;76.57
37852;BME280;23691;52.486;4.650;2022-09-09T05:27:34;100559.59;;;16.43;76.29
37852;BME280;23691;52.486;4.650;2022-09-09T05:30:00;100562.31;;;16.43;76.42
37852;BME280;23691;52.486;4.650;2022-09-09T05:32:25;100561.88;;;16.46;76.21
37852;BME280;23691;52.486;4.650;2022-09-09T05:34:51;100563.56;;;16.47;76.36
37852;BME280;23691;52.486;4.650;2022-09-09T05:37:17;100559.59;;;16.49;76.42
37852;BME280;23691;52.486;4.650;2022-09-09T05:39:43;100555.03;;;16.43;76.45
37852;BME280;23691;52.486;4.650;2022-09-09T05:42:09;100553.38;;;16.42;76.31
37852;BME280;23691;52.486;4.650;2022-09-09T05:44:35;100552.97;;;16.45;76.27
37852;BME280;23691;52.486;4.650;2022-09-09T05:47:00;100556.47;;;16.46;76.28
37852;BME280;23691;52.486;4.650;2022-09-09T05:49:25;100572.25;;;16.49;75.86
37852;BME280;23691;52.486;4.650;2022-09-09T05:51:52;100567.91;;;16.48;76.17
37852;BME280;23691;52.486;4.650;2022-09-09T05:54:18;100572.06;;;16.50;76.22
37852;BME280;23691;52.486;4.650;2022-09-09T05:56:44;100565.84;;;16.50;75.80
37852;BME280;23691;52.486;4.650;2022-09-09T05:59:10;100580.16;;;16.44;76.22
37852;BME280;23691;52.486;4.650;2022-09-09T06:01:37;100569.56;;;16.49;76.34
37852;BME280;23691;52.486;4.650;2022-09-09T06:04:05;100576.44;;;16.51;76.10
37852;BME280;23691;52.486;4.650;2022-09-09T06:06:33;100572.25;;;16.56;76.23
37852;BME280;23691;52.486;4.650;2022-09-09T06:09:03;100571.63;;;16.67;75.98
37852;BME280;23691;52.486;4.650;2022-09-09T06:11:32;100572.25;;;16.69;75.94
37852;BME280;23691;52.486;4.650;2022-09-09T06:13:58;100569.50;;;16.75;75.77
37852;BME280;23691;52.486;4.650;2022-09-09T06:16:26;100572.63;;;16.86;75.74
37852;BME280;23691;52.486;4.650;2022-09-09T06:18:54;100577.19;;;16.99;75.56
37852;BME280;23691;52.486;4.650;2022-09-09T06:21:35;100577.75;;;17.07;75.19
37852;BME280;23691;52.486;4.650;2022-09-09T06:24:03;100580.25;;;17.15;75.44
37852;BME280;23691;52.486;4.650;2022-09-09T06:26:31;100577.31;;;17.17;74.87
37852;BME280;23691;52.486;4.650;2022-09-09T06:28:58;100568.16;;;17.18;74.89
37852;BME280;23691;52.486;4.650;2022-09-09T06:31:26;100583.50;;;17.24;74.64
37852;BME280;23691;52.486;4.650;2022-09-09T06:33:56;100578.53;;;17.28;74.74
37852;BME280;23691;52.486;4.650;2022-09-09T06:36:33;100586.63;;;17.28;74.82
37852;BME280;23691;52.486;4.650;2022-09-09T06:38:59;100585.78;;;17.27;74.79
37852;BME280;23691;52.486;4.650;2022-09-09T06:41:27;100580.97;;;17.36;74.37
37852;BME280;23691;52.486;4.650;2022-09-09T06:43:54;100583.56;;;17.56;74.17
37852;BME280;23691;52.486;4.650;2022-09-09T06:46:29;100581.38;;;17.71;74.04
37852;BME280;23691;52.486;4.650;2022-09-09T06:48:55;100566.59;;;17.80;73.59
37852;BME280;23691;52.486;4.650;2022-09-09T06:51:26;100574.06;;;17.78;73.52
37852;BME280;23691;52.486;4.650;2022-09-09T06:53:56;100577.66;;;17.72;73.91
37852;BME280;23691;52.486;4.650;2022-09-09T06:56:30;100562.84;;;17.75;73.82
37852;BME280;23691;52.486;4.650;2022-09-09T06:58:57;100576.41;;;17.68;73.84
37852;BME280;23691;52.486;4.650;2022-09-09T07:01:31;100561.84;;;17.69;74.05
37852;BME280;23691;52.486;4.650;2022-09-09T07:03:58;100567.88;;;17.71;73.98
37852;BME280;23691;52.486;4.650;2022-09-09T07:06:29;100560.97;;;17.82;73.86
37852;BME280;23691;52.486;4.650;2022-09-09T07:09:00;100562.16;;;17.86;73.69
37852;BME280;23691;52.486;4.650;2022-09-09T07:11:28;100556.31;;;17.89;73.65
37852;BME280;23691;52.486;4.650;2022-09-09T07:13:54;100557.72;;;17.98;73.41
37852;BME280;23691;52.486;4.650;2022-09-09T07:16:21;100565.38;;;18.01;73.32
37852;BME280;23691;52.486;4.650;2022-09-09T07:18:50;100556.22;;;18.02;73.34
37852;BME280;23691;52.486;4.650;2022-09-09T07:21:17;100557.63;;;18.12;72.95
37852;BME280;23691;52.486;4.650;2022-09-09T07:23:43;100553.81;;;18.19;72.96
37852;BME280;23691;52.486;4.650;2022-09-09T07:26:14;100555.84;;;18.24;72.70
37852;BME280;23691;52.486;4.650;2022-09-09T07:28:41;100555.75;;;18.31;72.37
37852;BME280;23691;52.486;4.650;2022-09-09T07:31:12;100554.44;;;18.40;72.45
37852;BME280;23691;52.486;4.650;2022-09-09T07:33:39;100560.91;;;18.39;71.82
37852;BME280;23691;52.486;4.650;2022-09-09T07:36:16;100552.69;;;18.45;71.57
37852;BME280;23691;52.486;4.650;2022-09-09T07:38:46;100554.53;;;18.52;71.86
37852;BME280;23691;52.486;4.650;2022-09-09T07:41:17;100555.00;;;18.67;71.33
37852;BME280;23691;52.486;4.650;2022-09-09T07:43:45;100546.06;;;18.85;71.32
37852;BME280;23691;52.486;4.650;2022-09-09T07:46:12;100551.81;;;18.95;70.69
37852;BME280;23691;52.486;4.650;2022-09-09T07:48:39;100554.06;;;18.98;70.33
37852;BME280;23691;52.486;4.650;2022-09-09T07:51:09;100548.44;;;19.12;70.14
37852;BME280;23691;52.486;4.650;2022-09-09T07:53:37;100545.22;;;19.21;69.64
37852;BME280;23691;52.486;4.650;2022-09-09T07:56:09;100548.88;;;19.27;69.42
37852;BME280;23691;52.486;4.650;2022-09-09T07:58:39;100544.19;;;19.34;69.27
37852;BME280;23691;52.486;4.650;2022-09-09T08:01:10;100548.13;;;19.38;68.64
37852;BME280;23691;52.486;4.650;2022-09-09T08:03:37;100551.44;;;19.40;68.78
37852;BME280;23691;52.486;4.650;2022-09-09T08:06:04;100541.06;;;19.49;68.86
37852;BME280;23691;52.486;4.650;2022-09-09T08:08:32;100537.22;;;19.57;68.37
37852;BME280;23691;52.486;4.650;2022-09-09T08:11:16;100549.84;;;19.63;67.79
37852;BME280;23691;52.486;4.650;2022-09-09T08:13:43;100546.63;;;19.54;67.96
37852;BME280;23691;52.486;4.650;2022-09-09T08:16:23;100547.34;;;19.49;67.95
37852;BME280;23691;52.486;4.650;2022-09-09T08:18:50;100559.47;;;19.47;67.80
37852;BME280;23691;52.486;4.650;2022-09-09T08:21:24;100538.13;;;19.50;67.69
37852;BME280;23691;52.486;4.650;2022-09-09T08:23:51;100550.63;;;19.70;67.32
37852;BME280;23691;52.486;4.650;2022-09-09T08:26:32;100551.28;;;20.07;66.77
37852;BME280;23691;52.486;4.650;2022-09-09T08:28:59;100547.63;;;20.25;65.94
37852;BME280;23691;52.486;4.650;2022-09-09T08:31:37;100545.38;;;20.10;66.08
37852;BME280;23691;52.486;4.650;2022-09-09T08:34:03;100541.94;;;20.03;66.36
37852;BME280;23691;52.486;4.650;2022-09-09T08:36:31;100547.84;;;20.00;66.24
37852;BME280;23691;52.486;4.650;2022-09-09T08:38:58;100556.81;;;20.12;66.00
37852;BME280;23691;52.486;4.650;2022-09-09T08:52:25;100561.53;;;19.63;66.66
37852;BME280;23691;52.486;4.650;2022-09-09T08:54:55;100560.94;;;19.61;66.93
37852;BME280;23691;52.486;4.650;2022-09-09T08:57:26;100564.03;;;19.65;66.84
37852;BME280;23691;52.486;4.650;2022-09-09T08:59:54;100569.13;;;19.73;66.64
37852;BME280;23691;52.486;4.650;2022-09-09T09:02:45;100562.09;;;19.95;66.26
37852;BME280;23691;52.486;4.650;2022-09-09T09:05:36;100570.41;;;20.24;65.22
37852;BME280;23691;52.486;4.650;2022-09-09T09:10:57;100572.81;;;20.68;64.58
37852;BME280;23691;52.486;4.650;2022-09-09T09:16:36;100568.44;;;20.55;64.03
37852;BME280;23691;52.486;4.650;2022-09-09T09:19:04;100570.28;;;20.54;64.14
37852;BME280;23691;52.486;4.650;2022-09-09T09:21:43;100578.22;;;20.44;64.16
37852;BME280;23691;52.486;4.650;2022-09-09T09:26:44;100588.63;;;20.24;64.61
37852;BME280;23691;52.486;4.650;2022-09-09T09:29:27;100584.56;;;20.14;64.93
37852;BME280;23691;52.486;4.650;2022-09-09T09:31:55;100588.81;;;20.10;65.10
37852;BME280;23691;52.486;4.650;2022-09-09T09:34:22;100586.81;;;20.17;64.84
37852;BME280;23691;52.486;4.650;2022-09-09T09:36:55;100586.56;;;20.07;65.17
37852;BME280;23691;52.486;4.650;2022-09-09T09:39:33;100599.06;;;19.97;65.31
37852;BME280;23691;52.486;4.650;2022-09-09T09:42:11;100591.63;;;19.92;65.58
37852;BME280;23691;52.486;4.650;2022-09-09T09:44:41;100586.22;;;20.04;65.43
37852;BME280;23691;52.486;4.650;2022-09-09T09:47:18;100590.84;;;20.27;64.86
37852;BME280;23691;52.486;4.650;2022-09-09T09:49:57;100583.44;;;20.57;64.32
37852;BME280;23691;52.486;4.650;2022-09-09T09:52:29;100582.72;;;20.74;63.92
37852;BME280;23691;52.486;4.650;2022-09-09T09:54:56;100589.78;;;20.98;63.53
37852;BME280;23691;52.486;4.650;2022-09-09T09:57:26;100577.22;;;21.09;63.16
37852;BME280;23691;52.486;4.650;2022-09-09T10:00:23;100575.94;;;21.12;63.02
37852;BME280;23691;52.486;4.650;2022-09-09T10:02:50;100581.09;;;21.25;62.11
37852;BME280;23691;52.486;4.650;2022-09-09T10:05:26;100571.84;;;21.26;61.98
37852;BME280;23691;52.486;4.650;2022-09-09T10:08:02;100578.28;;;21.08;62.42
37852;BME280;23691;52.486;4.650;2022-09-09T10:30:19;100572.06;;;22.11;62.27
37852;BME280;23691;52.486;4.650;2022-09-09T10:33:22;100575.56;;;22.23;61.21
37852;BME280;23691;52.486;4.650;2022-09-09T10:36:03;100567.19;;;22.29;60.25
37852;BME280;23691;52.486;4.650;2022-09-09T10:38:45;100574.84;;;22.49;60.60
37852;BME280;23691;52.486;4.650;2022-09-09T10:41:24;100581.88;;;22.62;60.09
37852;BME280;23691;52.486;4.650;2022-09-09T10:48:54;100563.34;;;22.64;59.07
37852;BME280;23691;52.486;4.650;2022-09-09T10:59:48;100569.16;;;22.90;57.88
37852;BME280;23691;52.486;4.650;2022-09-09T11:02:27;100564.31;;;22.75;58.31
37852;BME280;23691;52.486;4.650;2022-09-09T11:05:06;100563.53;;;22.58;58.30
37852;BME280;23691;52.486;4.650;2022-09-09T11:07:40;100557.59;;;22.44;58.64
37852;BME280;23691;52.486;4.650;2022-09-09T11:10:20;100554.06;;;22.26;58.88
37852;BME280;23691;52.486;4.650;2022-09-09T11:12:50;100560.41;;;22.15;59.43
37852;BME280;23691;52.486;4.650;2022-09-09T11:15:28;100555.53;;;22.34;58.61
37852;BME280;23691;52.486;4.650;2022-09-09T11:17:58;100569.34;;;22.27;58.40
37852;BME280;23691;52.486;4.650;2022-09-09T11:20:26;100557.34;;;22.12;58.70
37852;BME280;23691;52.486;4.650;2022-09-09T11:22:54;100559.81;;;21.96;59.60
37852;BME280;23691;52.486;4.650;2022-09-09T11:38:49;100573.63;;;21.32;65.77
37852;BME280;23691;52.486;4.650;2022-09-09T11:41:17;100573.16;;;21.23;66.55
37852;BME280;23691;52.486;4.650;2022-09-09T11:43:52;100567.25;;;21.27;66.38
37852;BME280;23691;52.486;4.650;2022-09-09T11:46:20;100569.81;;;21.33;66.54
37852;BME280;23691;52.486;4.650;2022-09-09T11:49:01;100568.16;;;21.44;66.25
37852;BME280;23691;52.486;4.650;2022-09-09T11:51:29;100565.63;;;21.54;66.25
37852;BME280;23691;52.486;4.650;2022-09-09T11:54:28;100561.72;;;21.79;65.79
37852;BME280;23691;52.486;4.650;2022-09-09T11:56:44;100563.72;;;22.00;65.82
37852;BME280;23691;52.486;4.650;2022-09-09T11:59:21;100559.69;;;22.03;65.61
37852;BME280;23691;52.486;4.650;2022-09-09T12:01:57;100562.97;;;21.88;65.66
37852;BME280;23691;52.486;4.650;2022-09-09T12:10:23;100559.41;;;21.30;64.67
37852;BME280;23691;52.486;4.650;2022-09-09T12:12:50;100554.78;;;21.71;63.82
37852;BME280;23691;52.486;4.650;2022-09-09T12:15:19;100556.94;;;22.03;62.93
37852;BME280;23691;52.486;4.650;2022-09-09T12:17:53;100549.78;;;22.31;61.66
37852;BME280;23691;52.486;4.650;2022-09-09T12:22:50;100551.38;;;22.65;60.96
37852;BME280;23691;52.486;4.650;2022-09-09T12:28:22;100546.28;;;22.96;59.91
37852;BME280;23691;52.486;4.650;2022-09-09T12:31:04;100542.97;;;23.11;59.13
37852;BME280;23691;52.486;4.650;2022-09-09T12:33:38;100544.97;;;23.21;59.23
37852;BME280;23691;52.486;4.650;2022-09-09T12:36:12;100539.94;;;23.07;58.52
37852;BME280;23691;52.486;4.650;2022-09-09T12:38:41;100539.84;;;23.24;58.40
37852;BME280;23691;52.486;4.650;2022-09-09T12:41:19;100531.97;;;23.06;58.21
37852;BME280;23691;52.486;4.650;2022-09-09T12:43:45;100535.84;;;22.88;58.59
37852;BME280;23691;52.486;4.650;2022-09-09T12:46:20;100534.22;;;22.48;59.40
37852;BME280;23691;52.486;4.650;2022-09-09T12:48:48;100536.91;;;22.26;59.84
37852;BME280;23691;52.486;4.650;2022-09-09T12:51:27;100536.34;;;22.63;59.02
37852;BME280;23691;52.486;4.650;2022-09-09T12:53:54;100526.94;;;22.76;58.68
37852;BME280;23691;52.486;4.650;2022-09-09T12:56:22;100531.53;;;22.92;58.19
37852;BME280;23691;52.486;4.650;2022-09-09T12:58:51;100533.66;;;23.07;57.56
37852;BME280;23691;52.486;4.650;2022-09-09T13:01:27;100541.34;;;23.37;58.15
37852;BME280;23691;52.486;4.650;2022-09-09T13:03:54;100545.22;;;23.41;57.81
37852;BME280;23691;52.486;4.650;2022-09-09T13:06:23;100553.44;;;23.19;58.28
37852;BME280;23691;52.486;4.650;2022-09-09T13:08:51;100559.88;;;22.91;58.87
37852;BME280;23691;52.486;4.650;2022-09-09T13:11:17;100562.41;;;22.76;59.27
37852;BME280;23691;52.486;4.650;2022-09-09T13:13:51;100553.50;;;22.63;60.04
37852;BME280;23691;52.486;4.650;2022-09-09T13:16:31;100556.69;;;22.55;60.12
37852;BME280;23691;52.486;4.650;2022-09-09T13:19:16;100550.50;;;22.82;60.08
37852;BME280;23691;52.486;4.650;2022-09-09T13:21:42;100557.31;;;22.62;59.93
37852;BME280;23691;52.486;4.650;2022-09-09T13:24:33;100556.78;;;22.43;60.34
37852;BME280;23691;52.486;4.650;2022-09-09T13:27:02;100550.59;;;22.31;60.84
37852;BME280;23691;52.486;4.650;2022-09-09T13:29:28;100551.03;;;22.23;61.10
37852;BME280;23691;52.486;4.650;2022-09-09T13:32:04;100552.34;;;22.20;61.70
37852;BME280;23691;52.486;4.650;2022-09-09T13:34:33;100540.50;;;22.15;61.91
37852;BME280;23691;52.486;4.650;2022-09-09T13:37:01;100540.91;;;22.06;62.02
37852;BME280;23691;52.486;4.650;2022-09-09T13:39:28;100538.03;;;21.96;61.78
37852;BME280;23691;52.486;4.650;2022-09-09T13:41:53;100535.16;;;21.86;61.78
37852;BME280;23691;52.486;4.650;2022-09-09T13:44:29;100541.19;;;21.88;62.23
37852;BME280;23691;52.486;4.650;2022-09-09T13:47:20;100535.97;;;21.86;62.33
37852;BME280;23691;52.486;4.650;2022-09-09T13:49:46;100552.72;;;21.78;62.35
37852;BME280;23691;52.486;4.650;2022-09-09T13:52:15;100546.44;;;21.78;62.80
37852;BME280;23691;52.486;4.650;2022-09-09T13:54:42;100557.22;;;21.73;63.00
37852;BME280;23691;52.486;4.650;2022-09-09T13:57:34;100551.41;;;21.81;62.90
37852;BME280;23691;52.486;4.650;2022-09-09T14:00:00;100556.00;;;21.80;63.54
37852;BME280;23691;52.486;4.650;2022-09-09T14:02:26;100551.63;;;21.79;63.30
37852;BME280;23691;52.486;4.650;2022-09-09T14:04:51;100551.41;;;21.81;63.70
37852;BME280;23691;52.486;4.650;2022-09-09T14:07:20;100556.50;;;21.77;63.48
37852;BME280;23691;52.486;4.650;2022-09-09T14:09:46;100555.81;;;21.70;63.79
37852;BME280;23691;52.486;4.650;2022-09-09T14:12:15;100565.81;;;21.64;64.01
37852;BME280;23691;52.486;4.650;2022-09-09T14:14:41;100565.72;;;21.59;64.07
37852;BME280;23691;52.486;4.650;2022-09-09T14:17:08;100568.44;;;21.59;64.05
37852;BME280;23691;52.486;4.650;2022-09-09T14:19:34;100570.34;;;21.59;63.91
37852;BME280;23691;52.486;4.650;2022-09-09T14:21:59;100566.13;;;21.51;64.26
37852;BME280;23691;52.486;4.650;2022-09-09T14:24:25;100573.34;;;21.46;64.42
37852;BME280;23691;52.486;4.650;2022-09-09T14:26:51;100577.75;;;21.35;64.85
37852;BME280;23691;52.486;4.650;2022-09-09T14:29:16;100581.09;;;21.25;66.02
37852;BME280;23691;52.486;4.650;2022-09-09T14:31:42;100571.53;;;21.11;66.69
37852;BME280;23691;52.486;4.650;2022-09-09T14:34:07;100579.97;;;20.97;67.87
37852;BME280;23691;52.486;4.650;2022-09-09T14:36:33;100577.28;;;20.86;68.62
37852;BME280;23691;52.486;4.650;2022-09-09T14:38:58;100578.47;;;20.78;69.23
37852;BME280;23691;52.486;4.650;2022-09-09T14:41:24;100576.84;;;20.65;69.43
37852;BME280;23691;52.486;4.650;2022-09-09T14:43:50;100575.88;;;20.59;70.17
37852;BME280;23691;52.486;4.650;2022-09-09T14:46:19;100580.34;;;20.54;70.46
37852;BME280;23691;52.486;4.650;2022-09-09T14:48:45;100574.19;;;20.47;70.71
37852;BME280;23691;52.486;4.650;2022-09-09T14:51:24;100580.81;;;20.39;71.24
37852;BME280;23691;52.486;4.650;2022-09-09T14:53:55;100586.47;;;20.37;71.28
37852;BME280;23691;52.486;4.650;2022-09-09T14:56:23;100588.63;;;20.35;71.57